Time;durP1;ratioP1;P1;durP2;ratioP2;P2;SDS_P1;SDS_P2;PMS_P1;PMS_P2;Temp;Humidity;BMP_temperature;BMP_pressure;BME280_temperature;BME280_humidity;BME280_pressure;Samples;Min_cycle;Max_cycle;Signal;HPM_P1;HPM_P2
2023/03/16 00:00:25;;;;;;;8.80;6.80;;;-0.30;99.90;;;;;;5093598;28;20472;-77
2023/03/16 00:02:54;;;;;;;9.27;7.13;;;-0.40;99.90;;;;;;5093918;28;20227;-77
2023/03/16 00:05:24;;;;;;;7.47;6.40;;;-0.40;99.90;;;;;;5094395;28;20294;-78
2023/03/16 00:07:52;;;;;;;7.97;6.50;;;-0.50;99.90;;;;;;5092907;28;20499;-78
2023/03/16 00:10:26;;;;;;;9.67;7.23;;;-0.50;99.90;;;;;;5094236;28;20452;-78
2023/03/16 00:12:57;;;;;;;7.33;5.97;;;-0.50;99.90;;;;;;5093983;28;20963;-77
2023/03/16 00:15:25;;;;;;;8.27;6.77;;;-0.60;99.90;;;;;;5093379;28;20492;-77
2023/03/16 00:17:53;;;;;;;9.37;6.80;;;-0.60;99.90;;;;;;5073756;28;20454;-75
2023/03/16 00:20:22;;;;;;;9.30;7.20;;;-0.60;99.90;;;;;;5073596;28;20983;-76
2023/03/16 00:22:50;;;;;;;7.17;6.33;;;-0.60;99.90;;;;;;5073171;28;20517;-76
2023/03/16 00:25:19;;;;;;;9.53;7.10;;;-0.60;99.90;;;;;;5076203;28;20461;-77
2023/03/16 00:27:47;;;;;;;8.00;6.97;;;-0.60;99.90;;;;;;5093757;28;20882;-76
2023/03/16 00:30:17;;;;;;;9.70;7.13;;;-0.60;99.90;;;;;;5093778;28;20568;-78
2023/03/16 00:32:44;;;;;;;10.50;7.43;;;-0.60;99.90;;;;;;5092969;28;21060;-76
2023/03/16 00:35:13;;;;;;;8.90;7.33;;;-0.60;99.90;;;;;;5093082;28;20465;-77
2023/03/16 00:37:43;;;;;;;10.07;7.40;;;-0.60;99.90;;;;;;5093705;28;20444;-77
2023/03/16 00:40:12;;;;;;;9.60;7.60;;;-0.60;99.90;;;;;;5092725;28;20239;-75
2023/03/16 00:42:40;;;;;;;9.53;7.17;;;-0.60;99.90;;;;;;5093097;28;20567;-76
2023/03/16 00:45:10;;;;;;;8.83;7.60;;;-0.50;99.90;;;;;;5092998;28;21032;-76
2023/03/16 00:47:41;;;;;;;9.63;7.47;;;-0.60;99.90;;;;;;5093494;28;20461;-78
2023/03/16 00:50:10;;;;;;;9.87;8.50;;;-0.70;99.90;;;;;;5093131;28;20506;-76
2023/03/16 00:52:38;;;;;;;10.83;9.20;;;-0.70;99.90;;;;;;5092788;28;20507;-76
2023/03/16 00:55:07;;;;;;;10.70;9.37;;;-0.70;99.90;;;;;;5093314;28;20452;-77
2023/03/16 00:57:35;;;;;;;10.40;8.83;;;-0.70;99.90;;;;;;5093480;28;20448;-78
2023/03/16 01:00:11;;;;;;;12.10;9.33;;;-0.70;99.90;;;;;;5093200;28;20488;-77
2023/03/16 01:02:41;;;;;;;11.83;9.00;;;-0.70;99.90;;;;;;5092145;28;20502;-78
2023/03/16 01:05:11;;;;;;;13.37;10.07;;;-0.80;99.90;;;;;;5093549;28;20503;-79
2023/03/16 01:07:39;;;;;;;11.00;9.40;;;-0.80;99.90;;;;;;5093377;28;20305;-75
2023/03/16 01:10:08;;;;;;;12.97;9.67;;;-0.80;99.90;;;;;;5092688;28;20464;-77
2023/03/16 01:12:36;;;;;;;11.23;9.20;;;-0.90;99.90;;;;;;5093024;28;20471;-77
2023/03/16 01:15:05;;;;;;;11.87;9.13;;;-0.90;99.90;;;;;;5093036;28;20808;-77
2023/03/16 01:17:34;;;;;;;12.07;9.70;;;-0.90;99.90;;;;;;5085698;28;20957;-77
2023/03/16 01:20:10;;;;;;;11.40;9.47;;;-1.00;99.90;;;;;;5072754;28;20504;-77
2023/03/16 01:22:39;;;;;;;11.30;8.97;;;-1.10;99.90;;;;;;5072015;28;20512;-77
2023/03/16 01:25:13;;;;;;;11.43;9.00;;;-1.10;99.90;;;;;;5072598;28;20806;-77
2023/03/16 01:27:42;;;;;;;13.47;9.10;;;-1.20;99.90;;;;;;5092871;28;20500;-79
2023/03/16 01:30:11;;;;;;;12.87;9.37;;;-1.20;99.90;;;;;;5092955;28;20522;-78
2023/03/16 01:32:40;;;;;;;10.67;9.20;;;-1.20;99.90;;;;;;5092090;28;20945;-78
2023/03/16 01:35:10;;;;;;;13.50;9.37;;;-1.20;99.90;;;;;;5091584;28;20473;-79
2023/03/16 01:37:39;;;;;;;11.97;9.70;;;-1.30;99.90;;;;;;5092476;28;20540;-78
2023/03/16 01:40:11;;;;;;;13.67;9.63;;;-1.30;99.90;;;;;;5092525;28;20956;-78
2023/03/16 01:42:46;;;;;;;12.70;10.10;;;-1.30;99.90;;;;;;5090016;28;20484;-77
2023/03/16 01:45:52;;;;;;;12.13;9.70;;;-1.30;99.90;;;;;;5092033;28;20430;-77
2023/03/16 01:48:24;;;;;;;13.93;9.87;;;-1.30;99.90;;;;;;5092430;28;20510;-79
2023/03/16 01:50:55;;;;;;;11.77;9.60;;;-1.30;99.90;;;;;;5092405;28;20457;-77
2023/03/16 01:53:25;;;;;;;11.97;9.90;;;-1.40;99.90;;;;;;5091123;28;20485;-76
2023/03/16 01:55:54;;;;;;;12.93;10.47;;;-1.40;99.90;;;;;;5092448;28;20459;-78
2023/03/16 01:58:23;;;;;;;13.70;11.17;;;-1.40;99.90;;;;;;5092400;28;20452;-78
2023/03/16 02:00:51;;;;;;;13.40;10.50;;;-1.30;99.90;;;;;;5092415;28;20459;-78
2023/03/16 02:03:20;;;;;;;11.83;10.23;;;-1.40;99.90;;;;;;5090865;28;20487;-79
2023/03/16 02:05:53;;;;;;;12.97;10.43;;;-1.40;99.90;;;;;;5092096;28;20448;-78
2023/03/16 02:08:24;;;;;;;11.70;10.17;;;-1.40;99.90;;;;;;5091790;28;20524;-78
2023/03/16 02:10:53;;;;;;;14.20;10.27;;;-1.50;99.90;;;;;;5091286;28;20490;-78
2023/03/16 02:13:23;;;;;;;13.00;10.30;;;-1.50;99.90;;;;;;5091650;28;20456;-78
2023/03/16 02:15:52;;;;;;;14.23;10.37;;;-1.50;99.90;;;;;;5091981;28;20441;-78
2023/03/16 02:18:21;;;;;;;14.03;11.33;;;-1.50;99.90;;;;;;5090737;28;20457;-78
2023/03/16 02:20:56;;;;;;;14.30;10.17;;;-1.50;99.90;;;;;;5091710;28;20456;-78
2023/03/16 02:23:27;;;;;;;11.67;9.93;;;-1.50;99.90;;;;;;5091426;28;20480;-79
2023/03/16 02:26:03;;;;;;;12.20;10.37;;;-1.60;99.90;;;;;;5091811;28;20434;-79
2023/03/16 02:28:36;;;;;;;13.07;10.70;;;-1.60;99.90;;;;;;5090954;28;20515;-79
2023/03/16 02:31:07;;;;;;;12.80;10.73;;;-1.60;99.90;;;;;;5091494;28;20491;-79
2023/03/16 02:33:36;;;;;;;12.73;10.53;;;-1.70;99.90;;;;;;5091178;28;20532;-77
2023/03/16 02:36:04;;;;;;;14.13;10.07;;;-1.70;99.90;;;;;;5091108;28;20455;-79
2023/03/16 02:38:33;;;;;;;14.93;10.83;;;-1.70;99.90;;;;;;5091974;28;20452;-78
2023/03/16 02:41:11;;;;;;;13.27;10.37;;;-1.80;99.90;;;;;;5094419;28;20448;-79
2023/03/16 02:43:43;;;;;;;13.33;10.50;;;-1.80;99.90;;;;;;5091098;28;20864;-79
2023/03/16 02:46:14;;;;;;;16.03;10.90;;;-1.80;99.90;;;;;;5091588;28;20602;-76
2023/03/16 02:48:51;;;;;;;14.53;11.17;;;-1.80;99.90;;;;;;5091938;28;20430;-79
2023/03/16 02:51:19;;;;;;;14.87;11.77;;;-1.80;99.90;;;;;;5091650;28;20440;-77
2023/03/16 02:53:48;;;;;;;14.47;11.60;;;-1.90;99.90;;;;;;5090401;28;20467;-77
2023/03/16 02:56:16;;;;;;;14.67;11.83;;;-1.90;99.90;;;;;;5091784;28;20475;-79
2023/03/16 02:58:44;;;;;;;14.67;11.77;;;-1.90;99.90;;;;;;5091586;28;20461;-79
2023/03/16 03:01:14;;;;;;;14.13;11.60;;;-1.90;99.90;;;;;;5091318;28;20454;-77
2023/03/16 03:03:42;;;;;;;13.23;11.50;;;-1.90;99.90;;;;;;5092093;28;21082;-75
2023/03/16 03:06:11;;;;;;;14.47;11.50;;;-1.90;99.90;;;;;;5095397;28;20460;-77
2023/03/16 03:08:39;;;;;;;13.27;11.70;;;-2.00;99.90;;;;;;5095472;28;20459;-78
2023/03/16 03:11:07;;;;;;;14.70;11.87;;;-1.90;99.90;;;;;;5095825;28;20455;-78
2023/03/16 03:13:38;;;;;;;14.33;11.53;;;-2.00;99.90;;;;;;5094190;28;21081;-78
2023/03/16 03:16:06;;;;;;;14.60;11.70;;;-2.00;99.90;;;;;;5098253;28;20520;-78
2023/03/16 03:18:36;;;;;;;16.97;11.77;;;-2.10;99.90;;;;;;5095814;28;20996;-78
2023/03/16 03:21:05;;;;;;;15.27;11.30;;;-2.00;99.90;;;;;;5094972;28;20531;-78
2023/03/16 03:23:33;;;;;;;14.00;10.93;;;-2.00;99.90;;;;;;5095083;28;20481;-77
2023/03/16 03:26:03;;;;;;;14.57;11.60;;;-2.10;99.90;;;;;;5095477;28;20448;-78
2023/03/16 03:28:33;;;;;;;15.97;12.17;;;-2.10;99.90;;;;;;5094100;28;20587;-76
2023/03/16 03:31:01;;;;;;;14.90;10.93;;;-2.00;99.90;;;;;;5095315;28;20471;-77
2023/03/16 03:33:32;;;;;;;13.93;11.93;;;-2.10;99.90;;;;;;5095278;28;20441;-78
2023/03/16 03:36:02;;;;;;;14.07;11.40;;;-2.00;99.90;;;;;;5095516;28;20741;-78
2023/03/16 03:38:30;;;;;;;14.73;11.83;;;-2.00;99.90;;;;;;5093865;28;20456;-77
2023/03/16 03:40:59;;;;;;;14.53;11.03;;;-2.10;99.90;;;;;;5094782;28;20464;-78
2023/03/16 03:43:29;;;;;;;17.30;11.50;;;-2.00;99.90;;;;;;5094114;28;20763;-76
2023/03/16 03:45:57;;;;;;;15.93;12.07;;;-2.00;99.90;;;;;;5094781;28;20456;-77
2023/03/16 03:48:26;;;;;;;15.40;11.97;;;-2.00;99.90;;;;;;5094047;28;20468;-76
2023/03/16 03:50:54;;;;;;;15.33;12.13;;;-2.10;99.90;;;;;;5094697;28;20514;-78
2023/03/16 03:53:23;;;;;;;16.00;12.40;;;-2.00;99.90;;;;;;5094535;28;20501;-77
2023/03/16 03:55:52;;;;;;;13.77;11.63;;;-2.00;99.90;;;;;;5094872;28;20461;-77
2023/03/16 03:58:20;;;;;;;18.20;12.93;;;-2.00;99.90;;;;;;5093993;28;20465;-78
2023/03/16 04:00:48;;;;;;;20.10;13.33;;;-2.00;99.90;;;;;;5094443;28;20457;-77
2023/03/16 04:03:17;;;;;;;15.07;12.87;;;-2.10;99.90;;;;;;5093815;28;20490;-77
2023/03/16 04:05:45;;;;;;;17.17;13.17;;;-2.10;99.90;;;;;;5093431;28;20469;-78
2023/03/16 04:08:14;;;;;;;16.17;12.93;;;-2.10;99.90;;;;;;5094219;28;20957;-77
2023/03/16 04:10:43;;;;;;;18.23;12.30;;;-2.00;99.90;;;;;;5094544;28;20544;-78
2023/03/16 04:13:11;;;;;;;18.77;13.37;;;-2.10;99.90;;;;;;5094308;28;20492;-77
2023/03/16 04:15:39;;;;;;;18.30;13.23;;;-2.10;99.90;;;;;;5093901;28;20491;-76
2023/03/16 04:18:07;;;;;;;17.00;13.03;;;-2.10;99.90;;;;;;5094252;28;20998;-78
2023/03/16 04:20:36;;;;;;;15.63;12.27;;;-2.00;99.90;;;;;;5094477;28;20610;-78
2023/03/16 04:23:05;;;;;;;15.63;12.83;;;-2.00;99.90;;;;;;5093149;28;20471;-77
2023/03/16 04:25:37;;;;;;;17.50;13.27;;;-2.00;99.90;;;;;;5093872;28;20488;-77
2023/03/16 04:28:08;;;;;;;17.50;12.70;;;-2.10;99.90;;;;;;5093906;28;20534;-77
2023/03/16 04:30:36;;;;;;;21.27;12.77;;;-2.10;99.90;;;;;;5093404;28;20484;-77
2023/03/16 04:33:04;;;;;;;16.50;12.63;;;-2.10;99.90;;;;;;5093772;28;20824;-76
2023/03/16 04:35:33;;;;;;;17.40;12.47;;;-2.10;99.90;;;;;;5094011;28;20495;-77
2023/03/16 04:38:01;;;;;;;15.73;12.67;;;-2.20;99.90;;;;;;5094384;28;20433;-78
2023/03/16 04:40:29;;;;;;;19.43;13.97;;;-2.20;99.90;;;;;;5093255;28;20949;-77
2023/03/16 04:42:58;;;;;;;16.10;12.77;;;-2.20;99.90;;;;;;5093293;28;20483;-78
2023/03/16 04:45:27;;;;;;;17.33;12.07;;;-2.30;99.90;;;;;;5093753;28;20508;-78
2023/03/16 04:47:55;;;;;;;17.23;12.07;;;-2.30;99.90;;;;;;5093682;28;20607;-77
2023/03/16 04:50:24;;;;;;;14.27;10.90;;;-2.30;99.90;;;;;;5092895;28;20469;-77
2023/03/16 04:52:52;;;;;;;15.47;12.50;;;-2.40;99.90;;;;;;5093761;28;20502;-78
2023/03/16 04:55:21;;;;;;;15.43;12.90;;;-2.40;99.90;;;;;;5093405;28;20483;-76
2023/03/16 04:57:51;;;;;;;19.00;13.63;;;-2.30;99.90;;;;;;5093597;28;20821;-77
2023/03/16 05:00:22;;;;;;;21.60;15.77;;;-2.40;99.90;;;;;;5092720;28;20547;-78
2023/03/16 05:02:52;;;;;;;21.87;16.07;;;-2.30;99.90;;;;;;5092810;28;20939;-77
2023/03/16 05:05:22;;;;;;;20.70;15.37;;;-2.30;99.90;;;;;;5093029;28;21055;-78
2023/03/16 05:07:50;;;;;;;19.43;16.07;;;-2.40;99.90;;;;;;5092536;28;20849;-79
2023/03/16 05:10:19;;;;;;;21.10;16.37;;;-2.30;99.90;;;;;;5093406;28;20449;-79
2023/03/16 05:12:47;;;;;;;21.67;16.10;;;-2.30;99.90;;;;;;5092802;28;20463;-78
2023/03/16 05:15:15;;;;;;;35.00;16.23;;;-2.30;99.90;;;;;;5092607;28;20531;-78
2023/03/16 05:17:45;;;;;;;22.60;16.13;;;-2.30;99.90;;;;;;5092860;28;20981;-76
2023/03/16 05:20:15;;;;;;;24.63;15.93;;;-2.40;99.90;;;;;;5093260;28;20457;-78
2023/03/16 05:22:47;;;;;;;27.93;16.07;;;-2.40;99.90;;;;;;5091224;28;20510;-78
2023/03/16 05:25:16;;;;;;;29.97;17.67;;;-2.50;99.90;;;;;;5093605;28;20544;-77
2023/03/16 05:27:45;;;;;;;27.87;17.40;;;-2.50;99.90;;;;;;5092199;28;21085;-78
2023/03/16 05:30:16;;;;;;;24.43;16.80;;;-2.60;99.90;;;;;;5092615;28;20453;-78
2023/03/16 05:32:45;;;;;;;28.73;17.53;;;-2.50;99.90;;;;;;5092980;28;20437;-76
2023/03/16 05:35:14;;;;;;;28.53;17.27;;;-2.50;99.90;;;;;;5093075;28;20458;-77
2023/03/16 05:37:43;;;;;;;34.43;18.87;;;-2.50;99.90;;;;;;5092979;28;20448;-78
2023/03/16 05:40:15;;;;;;;27.27;18.43;;;-2.50;99.90;;;;;;5092258;28;20535;-78
2023/03/16 05:42:45;;;;;;;27.10;19.37;;;-2.50;99.90;;;;;;5092619;28;20461;-78
2023/03/16 05:45:15;;;;;;;26.43;19.20;;;-2.40;99.90;;;;;;5092634;28;20485;-77
2023/03/16 05:47:46;;;;;;;29.80;19.70;;;-2.30;99.90;;;;;;5091906;28;20465;-77
2023/03/16 05:50:17;;;;;;;31.27;20.37;;;-2.20;99.90;;;;;;5092450;28;20461;-78
2023/03/16 05:52:46;;;;;;;26.37;19.47;;;-2.20;99.90;;;;;;5092544;28;20461;-78
2023/03/16 05:55:16;;;;;;;27.70;20.27;;;-2.20;99.90;;;;;;5092935;28;20951;-78
2023/03/16 05:57:45;;;;;;;27.37;19.73;;;-2.10;99.90;;;;;;5091877;28;20469;-76
2023/03/16 06:00:16;;;;;;;26.83;19.23;;;-2.00;99.90;;;;;;5092185;28;20487;-76
2023/03/16 06:02:47;;;;;;;24.53;19.77;;;-2.00;99.90;;;;;;5092310;28;20491;-79
2023/03/16 06:05:18;;;;;;;25.03;19.77;;;-1.90;99.90;;;;;;5092613;28;20476;-77
2023/03/16 06:07:46;;;;;;;27.83;20.10;;;-1.80;99.90;;;;;;5092041;28;20473;-78
2023/03/16 06:10:14;;;;;;;23.47;18.73;;;-1.80;99.90;;;;;;5092561;28;20503;-78
2023/03/16 06:12:43;;;;;;;23.00;18.83;;;-1.70;99.90;;;;;;5092339;28;20457;-78
2023/03/16 06:15:12;;;;;;;26.60;20.30;;;-1.70;99.90;;;;;;5093033;28;20847;-76
2023/03/16 06:17:41;;;;;;;26.63;19.60;;;-1.60;99.90;;;;;;5092523;28;20492;-77
2023/03/16 06:20:11;;;;;;;24.27;18.67;;;-1.50;99.90;;;;;;5094319;28;20449;-77
2023/03/16 06:22:42;;;;;;;24.33;19.30;;;-1.50;99.90;;;;;;5092702;28;20474;-78
2023/03/16 06:25:12;;;;;;;26.60;20.13;;;-1.40;99.90;;;;;;5090785;28;20850;-78
2023/03/16 06:27:41;;;;;;;24.17;19.17;;;-1.30;99.90;;;;;;5092313;28;20472;-78
2023/03/16 06:30:12;;;;;;;24.20;18.20;;;-1.30;99.90;;;;;;5092370;28;20459;-78
2023/03/16 06:32:41;;;;;;;21.17;17.97;;;-1.20;99.90;;;;;;5090989;28;20504;-77
2023/03/16 06:35:10;;;;;;;21.37;17.83;;;-1.10;99.90;;;;;;5092138;28;20483;-79
2023/03/16 06:37:38;;;;;;;21.50;17.90;;;-1.10;99.90;;;;;;5091945;28;20897;-78
2023/03/16 06:40:13;;;;;;;21.13;17.17;;;-1.00;99.90;;;;;;5095686;28;20464;-78
2023/03/16 06:42:42;;;;;;;20.00;16.37;;;-0.90;99.90;;;;;;5095212;28;20559;-78
2023/03/16 06:45:15;;;;;;;20.47;16.33;;;-0.70;99.90;;;;;;5096422;28;20497;-79
2023/03/16 06:47:43;;;;;;;20.17;17.03;;;-0.70;99.90;;;;;;5096744;28;20447;-79
2023/03/16 06:50:12;;;;;;;18.50;16.17;;;-0.60;99.90;;;;;;5095826;28;20464;-79
2023/03/16 06:52:40;;;;;;;20.03;15.47;;;-0.50;99.90;;;;;;5097221;28;20459;-77
2023/03/16 06:55:11;;;;;;;16.83;14.87;;;-0.50;99.90;;;;;;5100610;28;20451;-79
2023/03/16 06:57:39;;;;;;;17.20;14.50;;;-0.40;99.90;;;;;;5096093;28;21021;-80
2023/03/16 07:00:10;;;;;;;17.93;14.80;;;-0.30;99.90;;;;;;5096143;28;20794;-78
2023/03/16 07:02:39;;;;;;;16.67;13.83;;;-0.20;99.90;;;;;;5097395;28;20547;-78
2023/03/16 07:05:09;;;;;;;15.73;13.40;;;-0.10;99.90;;;;;;5095570;28;20487;-79
2023/03/16 07:07:38;;;;;;;17.00;13.43;;;-0.10;99.90;;;;;;5096075;28;20503;-78
2023/03/16 07:10:06;;;;;;;16.07;13.27;;;0.10;99.90;;;;;;5096177;28;20463;-77
2023/03/16 07:12:36;;;;;;;14.93;12.47;;;0.20;99.90;;;;;;5095358;28;20907;-79
2023/03/16 07:15:06;;;;;;;15.57;12.63;;;0.40;99.90;;;;;;5095143;28;20927;-79
2023/03/16 07:17:34;;;;;;;17.27;11.90;;;0.60;99.90;;;;;;5096113;28;20542;-79
2023/03/16 07:20:04;;;;;;;12.67;11.13;;;0.70;99.90;;;;;;5096813;28;20336;-76
2023/03/16 07:22:33;;;;;;;13.93;11.30;;;0.90;99.90;;;;;;5096413;28;20210;-79
2023/03/16 07:25:01;;;;;;;13.00;10.70;;;1.00;99.90;;;;;;5095431;28;20322;-79
2023/03/16 07:27:32;;;;;;;11.43;10.07;;;1.10;99.90;;;;;;5097417;28;20238;-79
2023/03/16 07:30:03;;;;;;;11.83;9.40;;;1.30;99.90;;;;;;5098566;28;20207;-79
2023/03/16 07:32:32;;;;;;;9.63;8.63;;;1.70;99.90;;;;;;5098967;28;20261;-80
2023/03/16 07:35:00;;;;;;;9.30;8.00;;;2.20;99.90;;;;;;5104215;28;20211;-78
2023/03/16 07:37:29;;;;;;;9.17;7.57;;;3.00;99.90;;;;;;5105456;28;20215;-78
2023/03/16 07:39:58;;;;;;;11.13;7.73;;;3.80;99.90;;;;;;5104196;28;20341;-79
2023/03/16 07:42:26;;;;;;;8.47;7.57;;;4.10;99.90;;;;;;5103457;28;20217;-80
2023/03/16 07:44:56;;;;;;;8.50;7.57;;;4.60;99.90;;;;;;5102130;28;20716;-77
2023/03/16 07:47:25;;;;;;;9.27;7.20;;;5.90;99.90;;;;;;5108020;28;20262;-77
2023/03/16 07:49:53;;;;;;;6.93;6.23;;;7.30;99.90;;;;;;5098411;28;20274;-78
2023/03/16 07:52:22;;;;;;;7.27;6.57;;;9.20;99.90;;;;;;5078456;28;20211;-79
2023/03/16 07:54:51;;;;;;;6.80;6.07;;;9.90;99.90;;;;;;5078366;28;20303;-77
2023/03/16 07:57:19;;;;;;;7.03;6.33;;;8.90;99.90;;;;;;5076559;28;20243;-76
2023/03/16 07:59:47;;;;;;;7.77;6.30;;;9.50;99.90;;;;;;5092452;28;20215;-75
2023/03/16 08:02:18;;;;;;;7.67;6.27;;;10.70;99.90;;;;;;5095147;28;20221;-77
2023/03/16 08:04:48;;;;;;;7.30;6.47;;;11.20;99.90;;;;;;5094683;28;20294;-77
2023/03/16 08:07:16;;;;;;;6.90;6.20;;;12.00;97.50;;;;;;5093856;28;20245;-77
2023/03/16 08:09:44;;;;;;;6.53;5.93;;;11.30;98.50;;;;;;5094854;28;20573;-76
2023/03/16 08:12:13;;;;;;;6.67;5.97;;;12.10;96.00;;;;;;5094599;28;20211;-79
2023/03/16 08:14:41;;;;;;;7.40;5.63;;;12.30;95.60;;;;;;5094922;28;20212;-77
2023/03/16 08:17:11;;;;;;;6.20;5.60;;;13.60;93.00;;;;;;5093615;28;20217;-77
2023/03/16 08:19:39;;;;;;;6.03;5.47;;;13.80;90.70;;;;;;5094621;28;20692;-77
2023/03/16 08:22:09;;;;;;;7.13;5.93;;;14.70;86.90;;;;;;5094518;28;20579;-77
2023/03/16 08:24:37;;;;;;;6.07;5.47;;;12.20;89.30;;;;;;5093963;28;20293;-78
2023/03/16 08:27:05;;;;;;;6.60;6.00;;;12.50;92.20;;;;;;5094300;28;20231;-76
2023/03/16 08:29:34;;;;;;;6.13;5.53;;;12.20;90.70;;;;;;5094180;28;20237;-77
2023/03/16 08:32:02;;;;;;;6.03;5.23;;;12.90;90.20;;;;;;5094035;28;20310;-77
2023/03/16 08:34:30;;;;;;;6.97;6.17;;;13.30;88.70;;;;;;5093317;28;20587;-76
2023/03/16 08:37:00;;;;;;;6.23;5.63;;;12.80;90.00;;;;;;5094491;28;20214;-78
2023/03/16 08:39:29;;;;;;;6.50;5.90;;;12.50;89.80;;;;;;5093946;28;20280;-76
2023/03/16 08:41:58;;;;;;;6.87;6.20;;;13.00;89.40;;;;;;5092622;28;20739;-76
2023/03/16 08:44:26;;;;;;;6.73;6.03;;;11.50;91.00;;;;;;5093887;28;20254;-78
2023/03/16 08:46:55;;;;;;;6.87;6.10;;;11.00;93.40;;;;;;5094007;28;20234;-76
2023/03/16 08:49:23;;;;;;;6.43;5.83;;;11.30;93.20;;;;;;5093735;28;20242;-75
2023/03/16 08:51:53;;;;;;;7.10;6.40;;;11.80;93.00;;;;;;5094271;28;20238;-77
2023/03/16 08:54:22;;;;;;;7.30;6.10;;;10.30;94.00;;;;;;5093686;28;20707;-77
2023/03/16 08:56:52;;;;;;;7.10;6.43;;;11.00;95.00;;;;;;5093929;28;20199;-76
2023/03/16 08:59:23;;;;;;;7.43;6.73;;;11.40;94.40;;;;;;5093863;28;20210;-79
2023/03/16 09:01:57;;;;;;;7.73;7.03;;;12.10;92.10;;;;;;5092037;28;20645;-77
2023/03/16 09:04:27;;;;;;;7.83;7.13;;;11.90;92.40;;;;;;5094280;28;20249;-77
2023/03/16 09:06:55;;;;;;;7.70;7.00;;;12.80;91.20;;;;;;5093968;28;20227;-83
2023/03/16 09:09:36;;;;;;;8.77;7.87;;;12.90;90.20;;;;;;5093871;28;20213;-76
2023/03/16 09:12:06;;;;;;;10.03;9.13;;;12.20;91.60;;;;;;5093522;28;20574;-78
2023/03/16 09:14:36;;;;;;;10.47;9.47;;;11.30;93.20;;;;;;5093975;28;20211;-75
2023/03/16 09:17:06;;;;;;;11.23;10.13;;;11.10;94.50;;;;;;5093186;28;20665;-78
2023/03/16 09:19:35;;;;;;;12.70;11.40;;;11.00;94.20;;;;;;5093335;28;20261;-80
2023/03/16 09:22:22;;;;;;;14.07;12.07;;;9.60;98.00;;;;;;5072695;28;20192;-78
2023/03/16 09:24:50;;;;;;;14.33;12.83;;;8.00;99.90;;;;;;5073135;28;20226;-79
2023/03/16 09:27:21;;;;;;;13.40;12.00;;;8.30;99.90;;;;;;5072688;28;20641;-78
2023/03/16 09:29:51;;;;;;;15.47;13.90;;;7.50;99.90;;;;;;5073207;28;20191;-76
2023/03/16 09:32:19;;;;;;;16.40;13.40;;;6.90;99.90;;;;;;5073092;28;20199;-77
2023/03/16 09:34:48;;;;;;;14.10;12.77;;;7.30;99.90;;;;;;5073175;28;20203;-78
2023/03/16 09:37:16;;;;;;;13.93;12.53;;;7.10;99.90;;;;;;5089984;28;20290;-79
2023/03/16 09:39:46;;;;;;;17.37;13.27;;;6.90;99.90;;;;;;5095917;28;20203;-77
2023/03/16 09:42:21;;;;;;;15.37;13.77;;;6.40;99.90;;;;;;5094101;28;20293;-78
2023/03/16 09:45:02;;;;;;;13.10;11.77;;;6.10;99.90;;;;;;5095030;28;20217;-77
2023/03/16 09:47:34;;;;;;;14.33;12.83;;;6.60;99.90;;;;;;5093996;28;20219;-79
2023/03/16 09:50:07;;;;;;;13.67;12.27;;;6.40;99.90;;;;;;5093574;28;20218;-79
2023/03/16 09:52:43;;;;;;;13.43;11.97;;;7.70;99.90;;;;;;5095730;28;20210;-77
2023/03/16 09:55:37;;;;;;;13.70;12.30;;;7.30;99.90;;;;;;5092302;28;20282;-79
2023/03/16 09:58:16;;;;;;;11.40;10.20;;;9.30;99.90;;;;;;5093385;28;20302;-77
2023/03/16 10:04:24;;;;;;;10.77;9.77;;;11.20;98.70;;;;;;5091539;28;20668;-78
2023/03/16 10:07:09;;;;;;;11.47;10.37;;;12.30;96.50;;;;;;5092503;28;20321;-79
2023/03/16 10:09:46;;;;;;;13.10;11.70;;;12.20;96.00;;;;;;5074326;28;20249;-81
2023/03/16 10:12:40;;;;;;;12.93;11.73;;;10.90;96.90;;;;;;5091656;28;20218;-77
2023/03/16 10:15:14;;;;;;;12.37;11.17;;;10.20;99.90;;;;;;5092097;28;20645;-79
2023/03/16 10:17:48;;;;;;;12.47;11.27;;;10.50;99.90;;;;;;5092611;28;20206;-78
2023/03/16 10:20:44;;;;;;;12.13;10.90;;;11.80;99.20;;;;;;5091334;28;20218;-77
2023/03/16 10:23:20;;;;;;;10.60;9.50;;;13.60;94.70;;;;;;5091958;28;20301;-78
2023/03/16 10:25:49;;;;;;;11.13;9.77;;;14.60;90.90;;;;;;5092472;28;20279;-77
2023/03/16 10:28:19;;;;;;;10.13;9.13;;;14.70;88.70;;;;;;5092460;28;20313;-76
2023/03/16 10:30:51;;;;;;;10.70;9.60;;;13.80;89.90;;;;;;5091159;28;20659;-77
2023/03/16 10:33:25;;;;;;;10.50;9.40;;;14.20;89.50;;;;;;5093298;28;20218;-81
2023/03/16 10:36:01;;;;;;;9.40;8.50;;;13.50;88.00;;;;;;5093429;28;20299;-77
2023/03/16 10:38:37;;;;;;;10.60;9.50;;;12.30;91.10;;;;;;5073071;28;20199;-76
2023/03/16 10:41:19;;;;;;;9.73;8.83;;;12.40;91.00;;;;;;5072168;28;20231;-78
2023/03/16 10:43:50;;;;;;;9.97;8.97;;;12.90;90.70;;;;;;5071966;28;20215;-77
2023/03/16 10:46:20;;;;;;;9.80;8.80;;;13.80;90.60;;;;;;5091590;28;20294;-79
2023/03/16 10:48:58;;;;;;;10.23;9.23;;;13.20;91.20;;;;;;5092445;28;20233;-76
2023/03/16 10:51:30;;;;;;;10.10;9.10;;;13.10;92.30;;;;;;5092520;28;20211;-77
2023/03/16 10:54:09;;;;;;;10.70;9.40;;;13.20;92.50;;;;;;5091077;28;20210;-79
2023/03/16 10:56:39;;;;;;;9.37;8.43;;;13.20;92.10;;;;;;5091858;28;20282;-76
2023/03/16 10:59:16;;;;;;;10.23;9.13;;;14.30;91.00;;;;;;5092104;28;20207;-77
2023/03/16 11:01:49;;;;;;;10.50;9.50;;;13.60;91.50;;;;;;5090996;28;20257;-78
2023/03/16 11:04:19;;;;;;;11.67;9.80;;;13.10;91.50;;;;;;5094531;28;20734;-81
2023/03/16 11:06:55;;;;;;;11.47;10.37;;;11.60;93.70;;;;;;5092757;28;20202;-77
2023/03/16 11:09:26;;;;;;;10.93;9.93;;;10.90;96.20;;;;;;5092374;28;20242;-77
2023/03/16 11:11:54;;;;;;;10.50;9.33;;;11.50;96.40;;;;;;5091096;28;20207;-76
2023/03/16 11:14:27;;;;;;;11.43;9.53;;;12.20;97.00;;;;;;5091881;28;20871;-76
2023/03/16 11:17:03;;;;;;;10.27;9.27;;;13.10;93.80;;;;;;5093017;28;20210;-79
2023/03/16 11:19:34;;;;;;;9.83;8.93;;;12.50;91.80;;;;;;5092705;28;20285;-77
2023/03/16 11:22:08;;;;;;;9.93;8.93;;;11.50;95.10;;;;;;5092294;28;20217;-78
2023/03/16 11:24:45;;;;;;;9.70;8.80;;;11.70;96.00;;;;;;5093302;28;20298;-76
2023/03/16 11:27:23;;;;;;;10.40;8.57;;;11.50;95.40;;;;;;5094814;28;20349;-79
2023/03/16 11:30:05;;;;;;;8.83;8.03;;;12.20;94.30;;;;;;5097262;28;20198;-75
2023/03/16 11:32:39;;;;;;;9.37;8.37;;;12.00;95.10;;;;;;5095481;28;20581;-76
2023/03/16 11:35:17;;;;;;;8.70;7.90;;;12.80;94.30;;;;;;5095883;28;20207;-76
2023/03/16 11:38:11;;;;;;;9.20;7.93;;;12.10;94.10;;;;;;5095249;28;20203;-76
2023/03/16 11:40:49;;;;;;;8.10;7.30;;;12.00;95.10;;;;;;5089523;28;20213;-78
2023/03/16 11:43:49;;;;;;;7.93;7.20;;;12.40;96.50;;;;;;5094264;28;20222;-76
2023/03/16 11:46:23;;;;;;;7.47;6.83;;;12.20;94.60;;;;;;5070293;28;20211;-79
2023/03/16 11:49:13;;;;;;;7.77;7.00;;;12.00;94.40;;;;;;5094902;28;20736;-77
2023/03/16 11:51:47;;;;;;;8.50;7.70;;;12.20;95.20;;;;;;5094174;28;20198;-76
2023/03/16 11:54:41;;;;;;;7.97;7.17;;;12.90;94.80;;;;;;5094799;28;20578;-77
2023/03/16 11:57:27;;;;;;;8.53;7.63;;;12.70;93.70;;;;;;5095421;28;20278;-78
2023/03/16 12:00:12;;;;;;;8.93;8.13;;;13.10;94.00;;;;;;5093487;28;20565;-79
2023/03/16 12:02:54;;;;;;;9.03;8.20;;;12.30;94.50;;;;;;5095724;28;20218;-76
2023/03/16 12:05:41;;;;;;;9.70;8.70;;;11.50;96.30;;;;;;5094077;28;20211;-76
2023/03/16 12:08:24;;;;;;;9.13;8.23;;;11.10;98.10;;;;;;5093933;28;20230;-77
2023/03/16 12:10:59;;;;;;;9.63;8.63;;;10.90;98.30;;;;;;5097372;28;20286;-77
2023/03/16 12:13:43;;;;;;;9.73;8.70;;;10.30;99.90;;;;;;5096867;28;20190;-76
2023/03/16 12:16:19;;;;;;;9.27;8.37;;;9.70;99.90;;;;;;5095355;28;20203;-78
2023/03/16 12:18:52;;;;;;;9.20;8.30;;;9.60;99.90;;;;;;5095150;28;20270;-77
2023/03/16 12:21:24;;;;;;;9.30;7.60;;;10.00;99.90;;;;;;5098031;28;20233;-76
2023/03/16 12:23:54;;;;;;;8.47;7.67;;;9.50;99.90;;;;;;5097155;28;20203;-78
2023/03/16 12:26:28;;;;;;;10.20;7.73;;;9.60;99.90;;;;;;5094815;28;20206;-78
2023/03/16 12:28:58;;;;;;;8.80;7.60;;;9.70;99.90;;;;;;5095182;28;20215;-76
2023/03/16 12:31:35;;;;;;;8.57;7.37;;;9.80;99.90;;;;;;5094494;28;20297;-77
2023/03/16 12:34:12;;;;;;;10.93;7.57;;;10.30;99.90;;;;;;5093347;28;20716;-77
2023/03/16 12:37:06;;;;;;;7.83;6.90;;;9.80;99.90;;;;;;5092869;28;20220;-78
2023/03/16 12:39:53;;;;;;;8.10;7.07;;;9.80;99.90;;;;;;5094672;28;20226;-77
2023/03/16 12:42:44;;;;;;;8.43;6.60;;;9.80;99.90;;;;;;5076017;28;20261;-76
2023/03/16 12:45:17;;;;;;;7.67;6.73;;;9.80;99.90;;;;;;5094182;28;20218;-77
2023/03/16 12:47:56;;;;;;;6.90;6.00;;;9.70;99.90;;;;;;5097023;28;20657;-81
2023/03/16 12:50:25;;;;;;;7.40;6.53;;;9.50;99.40;;;;;;5093036;28;20615;-78
2023/03/16 12:52:54;;;;;;;7.40;6.00;;;9.50;99.90;;;;;;5094604;28;20214;-77
2023/03/16 12:55:26;;;;;;;7.40;5.83;;;9.30;99.80;;;;;;5094681;28;20218;-76
2023/03/16 12:58:01;;;;;;;7.47;6.00;;;9.60;99.90;;;;;;5094711;28;20207;-77
2023/03/16 13:00:36;;;;;;;6.27;5.63;;;9.20;98.70;;;;;;5095875;28;20237;-78